createdAt,value
2023-05-06T00:01:32.211Z,100.00
2023-05-06T00:03:59.432Z,100.00
2023-05-06T00:06:26.695Z,100.00
2023-05-06T00:08:55.202Z,100.00
2023-05-06T00:11:22.363Z,100.00
2023-05-06T00:13:49.564Z,100.00
2023-05-06T00:16:16.781Z,100.00
2023-05-06T00:18:44.030Z,100.00
2023-05-06T00:21:11.199Z,100.00
2023-05-06T00:23:38.339Z,100.00
2023-05-06T00:26:07.041Z,100.00
2023-05-06T00:28:34.226Z,100.00
2023-05-06T00:31:01.424Z,100.00
2023-05-06T00:33:28.565Z,100.00
2023-05-06T00:35:55.761Z,100.00
2023-05-06T00:38:23.135Z,100.00
2023-05-06T00:40:50.278Z,100.00
2023-05-06T00:43:18.934Z,100.00
2023-05-06T00:45:46.308Z,100.00
2023-05-06T00:48:14.525Z,100.00
2023-05-06T00:50:42.164Z,100.00
2023-05-06T00:53:10.106Z,100.00
2023-05-06T00:55:38.161Z,100.00
2023-05-06T00:58:05.807Z,100.00
2023-05-06T01:00:34.351Z,100.00
2023-05-06T01:03:01.885Z,100.00
2023-05-06T01:05:35.113Z,100.00
2023-05-06T01:08:12.408Z,100.00
2023-05-06T01:10:49.571Z,100.00
2023-05-06T01:13:21.481Z,100.00
2023-05-06T01:15:53.874Z,100.00
2023-05-06T01:18:22.373Z,100.00
2023-05-06T01:20:52.388Z,100.00
2023-05-06T01:23:21.893Z,100.00
2023-05-06T01:25:49.254Z,100.00
2023-05-06T01:28:17.500Z,100.00
2023-05-06T01:30:52.993Z,100.00
2023-05-06T01:33:32.308Z,100.00
2023-05-06T01:36:12.847Z,100.00
2023-05-06T01:38:52.552Z,100.00
2023-05-06T01:41:20.872Z,100.00
2023-05-06T01:43:49.204Z,100.00
2023-05-06T01:46:20.234Z,100.00
2023-05-06T01:48:50.147Z,100.00
2023-05-06T01:51:17.350Z,100.00
2023-05-06T01:53:45.842Z,100.00
2023-05-06T01:56:13.212Z,100.00
2023-05-06T01:58:40.389Z,100.00
2023-05-06T02:01:07.591Z,100.00
2023-05-06T02:03:34.858Z,100.00
2023-05-06T02:06:02.037Z,100.00
2023-05-06T02:08:32.067Z,100.00
2023-05-06T02:11:00.604Z,100.00
2023-05-06T02:13:28.192Z,100.00
2023-05-06T02:15:55.457Z,100.00
2023-05-06T02:18:23.563Z,100.00
2023-05-06T02:20:50.743Z,100.00
2023-05-06T02:23:17.982Z,100.00
2023-05-06T02:25:47.015Z,100.00
2023-05-06T02:28:15.558Z,100.00
2023-05-06T02:30:43.222Z,100.00
2023-05-06T02:33:10.362Z,100.00
2023-05-06T02:35:38.210Z,100.00
2023-05-06T02:38:05.444Z,100.00
2023-05-06T02:40:34.083Z,100.00
2023-05-06T02:43:01.261Z,100.00
2023-05-06T02:45:29.859Z,100.00
2023-05-06T02:47:57.093Z,100.00
2023-05-06T02:50:24.268Z,100.00
2023-05-06T02:52:51.440Z,100.00
2023-05-06T02:55:18.799Z,100.00
2023-05-06T02:57:45.981Z,100.00
2023-05-06T03:00:14.012Z,100.00
2023-05-06T03:02:42.579Z,100.00
2023-05-06T03:05:10.205Z,100.00
2023-05-06T03:07:38.191Z,100.00
2023-05-06T03:10:06.542Z,100.00
2023-05-06T03:12:36.638Z,100.00
2023-05-06T03:15:04.873Z,100.00
2023-05-06T03:17:32.369Z,100.00
2023-05-06T03:20:01.893Z,100.00
2023-05-06T03:22:29.926Z,100.00
2023-05-06T03:24:57.833Z,100.00
2023-05-06T03:27:26.693Z,100.00
2023-05-06T03:29:58.070Z,100.00
2023-05-06T03:32:26.098Z,100.00
2023-05-06T03:34:53.459Z,100.00
2023-05-06T03:37:23.152Z,100.00
2023-05-06T03:39:54.525Z,100.00
2023-05-06T03:42:25.440Z,100.00
2023-05-06T03:44:52.940Z,100.00
2023-05-06T03:47:20.306Z,100.00
2023-05-06T03:49:47.549Z,100.00
2023-05-06T03:52:15.176Z,100.00
2023-05-06T03:54:43.817Z,100.00
2023-05-06T03:57:10.983Z,100.00
2023-05-06T03:59:38.369Z,100.00
2023-05-06T04:02:06.887Z,100.00
2023-05-06T04:04:36.811Z,100.00
2023-05-06T04:07:04.108Z,100.00
2023-05-06T04:09:31.752Z,100.00
2023-05-06T04:12:02.543Z,100.00
2023-05-06T04:14:30.483Z,100.00
2023-05-06T04:16:58.340Z,100.00
2023-05-06T04:19:25.556Z,100.00
2023-05-06T04:21:52.978Z,100.00
2023-05-06T04:24:20.500Z,100.00
2023-05-06T04:26:47.765Z,100.00
2023-05-06T04:29:16.827Z,100.00
2023-05-06T04:31:54.673Z,100.00
2023-05-06T04:34:23.341Z,100.00
2023-05-06T04:36:50.561Z,100.00
2023-05-06T04:39:28.851Z,100.00
2023-05-06T04:41:57.473Z,100.00
2023-05-06T04:44:33.553Z,100.00
2023-05-06T04:47:01.675Z,100.00
2023-05-06T04:49:29.125Z,100.00
2023-05-06T04:51:56.340Z,100.00
2023-05-06T04:54:23.686Z,100.00
2023-05-06T04:56:51.170Z,100.00
2023-05-06T04:59:19.754Z,100.00
2023-05-06T05:01:49.451Z,100.00
2023-05-06T05:04:16.826Z,100.00
2023-05-06T05:06:44.039Z,100.00
2023-05-06T05:09:12.321Z,100.00
2023-05-06T05:11:42.809Z,100.00
2023-05-06T05:14:10.016Z,100.00
2023-05-06T05:16:37.963Z,100.00
2023-05-06T05:19:09.040Z,100.00
2023-05-06T05:21:36.780Z,100.00
2023-05-06T05:24:05.308Z,100.00
2023-05-06T05:26:32.482Z,100.00
2023-05-06T05:29:01.188Z,100.00
2023-05-06T05:31:29.215Z,100.00
2023-05-06T05:33:57.191Z,100.00
2023-05-06T05:36:26.100Z,100.00
2023-05-06T05:38:55.091Z,100.00
2023-05-06T05:41:24.826Z,100.00
2023-05-06T05:43:52.053Z,100.00
2023-05-06T05:46:19.374Z,100.00
2023-05-06T05:48:48.286Z,100.00
2023-05-06T05:51:15.471Z,100.00
2023-05-06T05:53:44.626Z,100.00
2023-05-06T05:56:12.598Z,100.00
2023-05-06T05:58:39.812Z,100.00
2023-05-06T06:01:07.027Z,100.00
2023-05-06T06:03:34.681Z,100.00
2023-05-06T06:06:01.988Z,100.00
2023-05-06T06:08:30.414Z,100.00
2023-05-06T06:11:00.063Z,100.00
2023-05-06T06:13:34.328Z,100.00
2023-05-06T06:16:01.825Z,100.00
2023-05-06T06:18:29.020Z,100.00
2023-05-06T06:20:56.229Z,100.00
2023-05-06T06:23:24.168Z,100.00
2023-05-06T06:25:51.499Z,100.00
2023-05-06T06:28:20.092Z,100.00
2023-05-06T06:30:47.658Z,100.00
2023-05-06T06:33:14.836Z,100.00
2023-05-06T06:35:42.004Z,100.00
2023-05-06T06:38:09.213Z,100.00
2023-05-06T06:40:36.366Z,97.79
2023-05-06T06:43:03.506Z,97.45
2023-05-06T06:45:51.627Z,94.81
2023-05-06T06:48:19.263Z,93.60
2023-05-06T06:50:46.509Z,93.81
2023-05-06T06:53:13.795Z,93.70
2023-05-06T06:55:43.218Z,93.13
2023-05-06T06:58:10.487Z,92.23
2023-05-06T07:00:37.850Z,94.30
2023-05-06T07:03:06.531Z,94.60
2023-05-06T07:05:33.886Z,93.29
2023-05-06T07:08:01.053Z,90.02
2023-05-06T07:10:28.225Z,89.25
2023-05-06T07:12:55.556Z,85.95
2023-05-06T07:15:24.217Z,87.96
2023-05-06T07:17:51.352Z,86.33
2023-05-06T07:20:20.004Z,85.36
2023-05-06T07:22:47.176Z,86.15
2023-05-06T07:25:14.380Z,83.92
2023-05-06T07:27:41.524Z,81.28
2023-05-06T07:30:09.410Z,81.93
2023-05-06T07:32:36.590Z,79.77
2023-05-06T07:35:04.404Z,77.17
2023-05-06T07:37:33.020Z,78.05
2023-05-06T07:40:00.219Z,76.94
2023-05-06T07:42:27.348Z,77.15
2023-05-06T07:44:54.506Z,74.58
2023-05-06T07:47:30.576Z,74.63
2023-05-06T07:49:58.476Z,73.46
2023-05-06T07:52:25.781Z,73.93
2023-05-06T07:54:54.377Z,73.80
2023-05-06T07:57:21.569Z,72.14
2023-05-06T07:59:49.678Z,73.35
2023-05-06T08:02:17.306Z,71.34
2023-05-06T08:04:45.176Z,70.32
2023-05-06T08:07:12.575Z,70.67
2023-05-06T08:09:39.733Z,71.50
2023-05-06T08:12:08.306Z,70.94
2023-05-06T08:14:35.546Z,68.03
2023-05-06T08:17:02.757Z,68.46
2023-05-06T08:19:29.894Z,66.10
2023-05-06T08:21:57.101Z,66.16
2023-05-06T08:24:24.315Z,65.80
2023-05-06T08:26:51.486Z,66.09
2023-05-06T08:29:20.079Z,65.99
2023-05-06T08:31:47.382Z,64.79
2023-05-06T08:34:14.637Z,65.25
2023-05-06T08:36:41.792Z,64.23
2023-05-06T08:39:09.042Z,60.88
2023-05-06T08:41:39.667Z,60.34
2023-05-06T08:44:08.242Z,62.20
2023-05-06T08:46:36.980Z,62.61
2023-05-06T08:49:04.133Z,60.99
2023-05-06T08:51:33.492Z,60.14
2023-05-06T08:54:01.636Z,58.18
2023-05-06T08:56:30.779Z,57.76
2023-05-06T08:58:58.247Z,59.51
2023-05-06T09:01:26.528Z,59.90
2023-05-06T09:03:56.772Z,61.45
2023-05-06T09:06:24.186Z,59.83
2023-05-06T09:08:51.962Z,59.95
2023-05-06T09:11:21.449Z,60.97
2023-05-06T09:13:50.032Z,63.41
2023-05-06T09:16:28.154Z,60.99
2023-05-06T09:18:57.079Z,61.22
2023-05-06T09:21:33.100Z,58.84
2023-05-06T09:24:02.456Z,57.24
2023-05-06T09:26:30.664Z,59.16
2023-05-06T09:28:58.373Z,58.43
2023-05-06T09:31:26.928Z,57.52
2023-05-06T09:33:57.654Z,57.42
2023-05-06T09:36:26.290Z,58.84
2023-05-06T09:38:53.774Z,60.27
2023-05-06T09:41:22.090Z,60.10
2023-05-06T09:43:51.560Z,60.35
2023-05-06T09:46:19.715Z,59.43
2023-05-06T09:48:49.749Z,59.23
2023-05-06T09:51:19.769Z,59.62
2023-05-06T09:53:48.048Z,59.03
2023-05-06T09:56:20.219Z,57.58
2023-05-06T09:58:51.163Z,59.60
2023-05-06T10:01:32.627Z,60.43
2023-05-06T10:04:03.731Z,61.34
2023-05-06T10:06:34.311Z,59.41
2023-05-06T10:09:02.572Z,59.34
2023-05-06T10:11:30.607Z,62.57
2023-05-06T10:13:59.563Z,58.30
2023-05-06T10:16:28.259Z,59.78
2023-05-06T10:18:56.346Z,60.21
2023-05-06T10:21:25.289Z,62.44
2023-05-06T10:24:01.829Z,58.02
2023-05-06T10:26:29.960Z,58.80
2023-05-06T10:28:59.981Z,58.56
2023-05-06T10:31:29.153Z,56.15
2023-05-06T10:34:00.794Z,56.93
2023-05-06T10:36:31.139Z,54.36
2023-05-06T10:39:00.871Z,55.74
2023-05-06T10:41:29.098Z,56.83
2023-05-06T10:43:57.347Z,57.17
2023-05-06T10:46:25.306Z,53.37
2023-05-06T10:49:17.572Z,55.45
2023-05-06T10:51:47.708Z,55.90
2023-05-06T10:54:25.005Z,54.97
2023-05-06T10:57:12.916Z,56.39
2023-05-06T10:59:45.484Z,54.06
2023-05-06T11:02:13.495Z,55.00
2023-05-06T11:04:40.797Z,56.16
2023-05-06T11:07:10.076Z,56.23
2023-05-06T11:09:57.023Z,55.37
2023-05-06T11:12:46.021Z,56.44
2023-05-06T11:15:20.985Z,55.75
2023-05-06T11:17:48.253Z,53.62
2023-05-06T11:20:20.612Z,54.04
2023-05-06T11:22:47.877Z,54.91
2023-05-06T11:25:39.779Z,53.38
2023-05-06T11:28:08.382Z,54.46
2023-05-06T11:30:37.158Z,54.77
2023-05-06T11:33:05.678Z,55.14
2023-05-06T11:35:36.504Z,53.73
2023-05-06T11:38:04.207Z,54.73
2023-05-06T11:40:33.062Z,52.77
2023-05-06T11:43:10.311Z,50.57
2023-05-06T11:45:41.492Z,50.68
2023-05-06T11:48:11.518Z,51.84
2023-05-06T11:50:38.820Z,51.17
2023-05-06T11:53:06.039Z,51.65
2023-05-06T11:55:35.328Z,52.97
2023-05-06T11:58:02.496Z,51.65
2023-05-06T12:00:29.730Z,52.03
2023-05-06T12:02:57.098Z,51.12
2023-05-06T12:05:24.444Z,49.84
2023-05-06T12:07:51.853Z,49.88
2023-05-06T12:10:19.444Z,50.74
2023-05-06T12:12:48.151Z,49.33
2023-05-06T12:15:15.670Z,50.80
2023-05-06T12:17:42.922Z,51.95
2023-05-06T12:20:11.944Z,50.16
2023-05-06T12:22:39.332Z,49.87
2023-05-06T12:25:13.940Z,49.28
2023-05-06T12:27:41.155Z,45.59
2023-05-06T12:30:11.052Z,46.52
2023-05-06T12:32:56.526Z,44.88
2023-05-06T12:35:27.660Z,46.01
2023-05-06T12:37:54.910Z,46.88
2023-05-06T12:40:22.172Z,47.93
2023-05-06T12:42:54.232Z,47.17
2023-05-06T12:45:23.800Z,47.48
2023-05-06T12:47:54.820Z,47.26
2023-05-06T12:50:32.613Z,50.71
2023-05-06T12:53:00.195Z,49.46
2023-05-06T12:55:27.392Z,48.71
2023-05-06T12:57:55.545Z,47.49
2023-05-06T13:00:25.327Z,48.45
2023-05-06T13:02:52.626Z,47.34
2023-05-06T13:05:19.916Z,47.77
2023-05-06T13:07:47.564Z,48.46
2023-05-06T13:10:15.006Z,47.16
2023-05-06T13:12:42.440Z,45.76
2023-05-06T13:15:10.425Z,48.66
2023-05-06T13:17:39.048Z,45.39
2023-05-06T13:20:07.511Z,46.40
2023-05-06T13:22:46.989Z,49.86
2023-05-06T13:25:20.885Z,48.43
2023-05-06T13:27:48.135Z,49.38
2023-05-06T13:30:15.491Z,50.21
2023-05-06T13:32:45.022Z,47.65
2023-05-06T13:35:12.430Z,49.77
2023-05-06T13:37:39.811Z,49.44
2023-05-06T13:40:08.312Z,45.66
2023-05-06T13:42:36.266Z,50.21
2023-05-06T13:45:03.651Z,46.92
2023-05-06T13:47:30.849Z,48.51
2023-05-06T13:49:59.406Z,51.81
2023-05-06T13:52:26.576Z,48.12
2023-05-06T13:54:53.783Z,45.68
2023-05-06T13:57:20.944Z,44.47
2023-05-06T13:59:48.087Z,44.73
2023-05-06T14:02:15.428Z,46.74
2023-05-06T14:04:42.685Z,47.07
2023-05-06T14:07:11.455Z,50.55
2023-05-06T14:09:38.635Z,47.77
2023-05-06T14:12:05.979Z,46.14
2023-05-06T14:14:33.144Z,47.91
2023-05-06T14:17:00.340Z,45.67
2023-05-06T14:19:27.498Z,45.87
2023-05-06T14:21:54.710Z,46.57
2023-05-06T14:24:23.239Z,48.99
2023-05-06T14:26:50.446Z,45.71
2023-05-06T14:29:17.667Z,46.08
2023-05-06T14:31:44.940Z,46.15
2023-05-06T14:34:12.192Z,46.30
2023-05-06T14:36:39.510Z,46.57
2023-05-06T14:39:06.699Z,49.55
2023-05-06T14:41:35.221Z,45.94
2023-05-06T14:44:02.364Z,45.93
2023-05-06T14:46:29.837Z,45.42
2023-05-06T14:48:57.269Z,46.82
2023-05-06T14:51:24.539Z,46.13
2023-05-06T14:53:51.690Z,44.40
2023-05-06T14:56:18.873Z,43.32
2023-05-06T14:58:47.361Z,44.14
2023-05-06T15:01:14.531Z,43.82
2023-05-06T15:03:41.736Z,44.93
2023-05-06T15:06:08.927Z,46.21
2023-05-06T15:08:36.178Z,49.77
2023-05-06T15:11:04.246Z,48.79
2023-05-06T15:13:31.630Z,47.87
2023-05-06T15:16:00.228Z,48.04
2023-05-06T15:18:27.407Z,47.53
2023-05-06T15:20:54.605Z,48.11
2023-05-06T15:23:21.849Z,49.05
2023-05-06T15:25:49.003Z,48.49
2023-05-06T15:28:16.271Z,47.73
2023-05-06T15:30:43.430Z,45.13
2023-05-06T15:33:11.977Z,45.44
2023-05-06T15:35:39.098Z,43.65
2023-05-06T15:38:06.257Z,45.70
2023-05-06T15:40:33.409Z,48.12
2023-05-06T15:43:00.708Z,45.13
2023-05-06T15:45:27.875Z,47.28
2023-05-06T15:47:55.076Z,50.13
2023-05-06T15:50:32.795Z,49.66
2023-05-06T15:53:00.951Z,51.26
2023-05-06T15:55:28.360Z,51.73
2023-05-06T15:57:56.036Z,52.12
2023-05-06T16:00:24.136Z,51.58
2023-05-06T16:02:51.461Z,52.56
2023-05-06T16:05:18.736Z,55.53
2023-05-06T16:07:47.328Z,58.70
2023-05-06T16:10:14.522Z,56.95
2023-05-06T16:12:41.747Z,56.60
2023-05-06T16:15:09.722Z,57.22
2023-05-06T16:17:36.877Z,55.58
2023-05-06T16:20:04.917Z,56.37
2023-05-06T16:22:32.112Z,57.45
2023-05-06T16:25:00.742Z,60.40
2023-05-06T16:27:27.893Z,60.74
2023-05-06T16:29:55.887Z,57.49
2023-05-06T16:32:23.553Z,55.68
2023-05-06T16:34:50.819Z,60.46
2023-05-06T16:37:18.031Z,60.60
2023-05-06T16:39:45.163Z,58.56
2023-05-06T16:42:13.699Z,59.34
2023-05-06T16:44:40.899Z,61.02
2023-05-06T16:47:08.300Z,61.04
2023-05-06T16:49:35.502Z,61.75
2023-05-06T16:52:02.741Z,61.89
2023-05-06T16:54:30.028Z,63.92
2023-05-06T16:56:57.186Z,64.91
2023-05-06T16:59:25.711Z,64.63
2023-05-06T17:01:52.859Z,65.82
2023-05-06T17:04:20.079Z,66.20
2023-05-06T17:06:47.454Z,66.63
2023-05-06T17:09:14.613Z,67.04
2023-05-06T17:11:41.783Z,66.92
2023-05-06T17:14:09.591Z,66.92
2023-05-06T17:16:38.282Z,66.73
2023-05-06T17:19:05.438Z,68.11
2023-05-06T17:21:32.625Z,69.15
2023-05-06T17:23:59.879Z,69.54
2023-05-06T17:26:27.041Z,68.89
2023-05-06T17:28:54.302Z,69.73
2023-05-06T17:31:21.576Z,69.59
2023-05-06T17:33:50.239Z,69.00
2023-05-06T17:36:18.121Z,70.16
2023-05-06T17:38:45.255Z,69.37
2023-05-06T17:41:12.467Z,70.05
2023-05-06T17:43:39.765Z,69.38
2023-05-06T17:46:07.020Z,69.90
2023-05-06T17:48:34.185Z,69.96
2023-05-06T17:51:02.816Z,70.76
2023-05-06T17:53:30.037Z,70.64
2023-05-06T17:55:57.172Z,71.73
2023-05-06T17:58:24.477Z,71.95
2023-05-06T18:00:51.619Z,72.03
2023-05-06T18:03:19.008Z,71.27
2023-05-06T18:05:46.258Z,71.01
2023-05-06T18:08:14.767Z,70.10
2023-05-06T18:10:41.938Z,72.37
2023-05-06T18:13:09.231Z,72.26
2023-05-06T18:15:36.641Z,71.89
2023-05-06T18:18:04.092Z,69.42
2023-05-06T18:20:32.296Z,70.86
2023-05-06T18:22:59.479Z,71.32
2023-05-06T18:25:28.046Z,72.63
2023-05-06T18:27:55.189Z,73.15
2023-05-06T18:30:22.325Z,72.48
2023-05-06T18:32:51.363Z,74.20
2023-05-06T18:35:19.665Z,72.80
2023-05-06T18:37:46.865Z,72.87
2023-05-06T18:40:14.609Z,73.47
2023-05-06T18:42:43.128Z,71.03
2023-05-06T18:45:11.487Z,70.93
2023-05-06T18:47:38.976Z,71.24
2023-05-06T18:50:07.554Z,72.20
2023-05-06T18:52:34.831Z,73.04
2023-05-06T18:55:01.989Z,73.08
2023-05-06T18:57:29.211Z,73.65
2023-05-06T18:59:57.717Z,74.52
2023-05-06T19:02:25.007Z,75.27
2023-05-06T19:04:52.201Z,75.04
2023-05-06T19:07:19.388Z,75.70
2023-05-06T19:09:46.562Z,75.38
2023-05-06T19:12:13.760Z,75.14
2023-05-06T19:14:40.908Z,76.53
2023-05-06T19:17:09.613Z,77.02
2023-05-06T19:19:36.802Z,77.12
2023-05-06T19:22:03.978Z,76.61
2023-05-06T19:24:31.143Z,75.42
2023-05-06T19:26:58.328Z,75.62
2023-05-06T19:29:25.455Z,76.09
2023-05-06T19:31:52.624Z,76.96
2023-05-06T19:34:21.168Z,76.71
2023-05-06T19:36:48.330Z,76.95
2023-05-06T19:39:15.534Z,77.86
2023-05-06T19:41:42.668Z,77.83
2023-05-06T19:44:09.821Z,77.74
2023-05-06T19:46:37.036Z,78.63
2023-05-06T19:49:04.294Z,78.22
2023-05-06T19:51:32.829Z,79.11
2023-05-06T19:53:59.986Z,79.92
2023-05-06T19:56:27.120Z,79.65
2023-05-06T19:58:54.284Z,78.34
2023-05-06T20:01:21.465Z,77.21
2023-05-06T20:03:48.850Z,76.81
2023-05-06T20:06:16.098Z,77.49
2023-05-06T20:08:44.603Z,77.94
2023-05-06T20:11:11.831Z,79.42
2023-05-06T20:13:38.993Z,77.18
2023-05-06T20:16:06.398Z,78.92
2023-05-06T20:18:33.673Z,78.42
2023-05-06T20:21:00.801Z,78.76
2023-05-06T20:23:27.983Z,78.86
2023-05-06T20:25:56.720Z,78.66
2023-05-06T20:28:23.868Z,77.32
2023-05-06T20:30:51.283Z,77.49
2023-05-06T20:33:18.491Z,76.96
2023-05-06T20:35:45.697Z,76.79
2023-05-06T20:38:12.877Z,77.40
2023-05-06T20:40:40.042Z,78.05
2023-05-06T20:43:08.615Z,78.28
2023-05-06T20:45:36.002Z,78.47
2023-05-06T20:48:03.236Z,78.92
2023-05-06T20:50:30.444Z,78.20
2023-05-06T20:52:57.874Z,78.60
2023-05-06T20:55:25.067Z,79.18
2023-05-06T20:57:52.271Z,78.16
2023-05-06T21:00:21.589Z,78.14
2023-05-06T21:02:48.853Z,78.03
2023-05-06T21:05:16.112Z,77.01
2023-05-06T21:07:43.347Z,78.36
2023-05-06T21:10:11.274Z,78.97
2023-05-06T21:12:38.625Z,79.84
2023-05-06T21:15:07.057Z,77.65
2023-05-06T21:17:35.821Z,80.51
2023-05-06T21:20:04.297Z,82.11
2023-05-06T21:22:33.409Z,82.06
2023-05-06T21:25:00.540Z,81.81
2023-05-06T21:27:27.757Z,81.02
2023-05-06T21:29:54.942Z,78.50
2023-05-06T21:32:22.120Z,79.18
2023-05-06T21:34:50.650Z,79.78
2023-05-06T21:37:17.788Z,81.12
2023-05-06T21:39:44.910Z,81.30
2023-05-06T21:42:12.117Z,80.66
2023-05-06T21:44:39.267Z,80.18
2023-05-06T21:47:06.429Z,80.69
2023-05-06T21:49:33.602Z,80.07
2023-05-06T21:52:02.131Z,78.79
2023-05-06T21:54:29.305Z,79.39
2023-05-06T21:56:56.440Z,77.59
2023-05-06T21:59:23.573Z,77.05
2023-05-06T22:01:50.774Z,76.57
2023-05-06T22:04:17.954Z,76.84
2023-05-06T22:06:45.162Z,75.96
2023-05-06T22:09:13.669Z,76.70
2023-05-06T22:11:40.838Z,76.00
2023-05-06T22:14:08.059Z,77.90
2023-05-06T22:16:35.710Z,79.88
2023-05-06T22:19:03.182Z,80.42
2023-05-06T22:21:30.543Z,80.18
2023-05-06T22:23:57.730Z,80.12
2023-05-06T22:26:26.734Z,80.37
2023-05-06T22:28:54.036Z,80.79
2023-05-06T22:31:21.300Z,79.82
2023-05-06T22:33:48.531Z,79.70
2023-05-06T22:36:15.710Z,81.28
2023-05-06T22:38:42.915Z,81.39
2023-05-06T22:41:10.123Z,81.68
2023-05-06T22:43:38.748Z,81.38
2023-05-06T22:46:05.971Z,81.38
2023-05-06T22:48:33.156Z,81.20
2023-05-06T22:51:00.363Z,80.31
2023-05-06T22:53:27.533Z,80.79
2023-05-06T22:55:54.757Z,80.28
2023-05-06T22:58:21.954Z,80.29
2023-05-06T23:00:50.506Z,80.57
2023-05-06T23:03:17.711Z,81.16
2023-05-06T23:05:44.965Z,81.72
2023-05-06T23:08:12.136Z,81.77
2023-05-06T23:10:39.371Z,81.56
2023-05-06T23:13:06.764Z,82.44
2023-05-06T23:15:34.014Z,82.10
2023-05-06T23:18:02.578Z,82.81
2023-05-06T23:20:29.911Z,82.69
2023-05-06T23:22:57.094Z,82.84
2023-05-06T23:25:24.254Z,82.63
2023-05-06T23:27:51.408Z,82.83
2023-05-06T23:30:18.621Z,82.74
2023-05-06T23:32:45.837Z,83.33
2023-05-06T23:35:14.551Z,82.56
2023-05-06T23:37:41.994Z,83.51
2023-05-06T23:40:09.887Z,83.92
2023-05-06T23:42:37.178Z,84.05
2023-05-06T23:45:05.058Z,83.96
2023-05-06T23:47:32.367Z,83.42
2023-05-06T23:49:59.689Z,84.44
2023-05-06T23:52:28.426Z,83.95
2023-05-06T23:54:55.580Z,85.28
2023-05-06T23:57:22.738Z,85.15
2023-05-06T23:59:49.920Z,86.29
